sensor_id;sensor_type;location;lat;lon;timestamp;P1;durP1;ratioP1;P2;durP2;ratioP2
18196;SDS011;9224;52.422;13.024;2022-08-21T00:01:39;6.32;;;5.75;;
18196;SDS011;9224;52.422;13.024;2022-08-21T00:04:06;6.60;;;5.97;;
18196;SDS011;9224;52.422;13.024;2022-08-21T00:06:34;7.30;;;6.15;;
18196;SDS011;9224;52.422;13.024;2022-08-21T00:09:01;6.60;;;6.00;;
18196;SDS011;9224;52.422;13.024;2022-08-21T00:11:29;7.95;;;6.35;;
18196;SDS011;9224;52.422;13.024;2022-08-21T00:13:57;6.78;;;6.07;;
18196;SDS011;9224;52.422;13.024;2022-08-21T00:16:23;6.80;;;5.97;;
18196;SDS011;9224;52.422;13.024;2022-08-21T00:18:50;6.80;;;6.20;;
18196;SDS011;9224;52.422;13.024;2022-08-21T00:21:16;6.45;;;5.93;;
18196;SDS011;9224;52.422;13.024;2022-08-21T00:23:43;6.80;;;6.20;;
18196;SDS011;9224;52.422;13.024;2022-08-21T00:26:10;6.63;;;6.03;;
18196;SDS011;9224;52.422;13.024;2022-08-21T00:28:36;6.80;;;5.88;;
18196;SDS011;9224;52.422;13.024;2022-08-21T00:31:04;7.35;;;6.20;;
18196;SDS011;9224;52.422;13.024;2022-08-21T00:33:31;6.25;;;5.70;;
18196;SDS011;9224;52.422;13.024;2022-08-21T00:35:58;6.35;;;5.75;;
18196;SDS011;9224;52.422;13.024;2022-08-21T00:38:25;6.43;;;5.55;;
18196;SDS011;9224;52.422;13.024;2022-08-21T00:40:53;6.28;;;5.68;;
18196;SDS011;9224;52.422;13.024;2022-08-21T00:43:22;6.32;;;5.72;;
18196;SDS011;9224;52.422;13.024;2022-08-21T00:45:50;6.65;;;5.93;;
18196;SDS011;9224;52.422;13.024;2022-08-21T00:48:19;6.53;;;5.80;;
18196;SDS011;9224;52.422;13.024;2022-08-21T00:50:49;6.57;;;5.70;;
18196;SDS011;9224;52.422;13.024;2022-08-21T00:53:17;7.03;;;5.10;;
18196;SDS011;9224;52.422;13.024;2022-08-21T00:55:43;5.63;;;5.07;;
18196;SDS011;9224;52.422;13.024;2022-08-21T00:58:11;8.32;;;5.30;;
18196;SDS011;9224;52.422;13.024;2022-08-21T01:00:40;5.15;;;4.65;;
18196;SDS011;9224;52.422;13.024;2022-08-21T01:03:09;6.25;;;4.50;;
18196;SDS011;9224;52.422;13.024;2022-08-21T01:05:39;5.43;;;4.60;;
18196;SDS011;9224;52.422;13.024;2022-08-21T01:08:06;6.57;;;4.60;;
18196;SDS011;9224;52.422;13.024;2022-08-21T01:10:33;7.68;;;4.80;;
18196;SDS011;9224;52.422;13.024;2022-08-21T01:13:00;5.35;;;4.63;;
18196;SDS011;9224;52.422;13.024;2022-08-21T01:15:29;5.15;;;4.65;;
18196;SDS011;9224;52.422;13.024;2022-08-21T01:17:57;7.07;;;4.88;;
18196;SDS011;9224;52.422;13.024;2022-08-21T01:20:24;5.88;;;4.65;;
18196;SDS011;9224;52.422;13.024;2022-08-21T01:22:52;6.40;;;4.90;;
18196;SDS011;9224;52.422;13.024;2022-08-21T01:25:19;5.50;;;4.55;;
18196;SDS011;9224;52.422;13.024;2022-08-21T01:27:46;6.28;;;4.60;;
18196;SDS011;9224;52.422;13.024;2022-08-21T01:30:14;5.68;;;4.68;;
18196;SDS011;9224;52.422;13.024;2022-08-21T01:32:42;6.35;;;4.82;;
18196;SDS011;9224;52.422;13.024;2022-08-21T01:35:09;6.38;;;5.00;;
18196;SDS011;9224;52.422;13.024;2022-08-21T01:37:40;7.65;;;4.78;;
18196;SDS011;9224;52.422;13.024;2022-08-21T01:40:09;5.43;;;4.80;;
18196;SDS011;9224;52.422;13.024;2022-08-21T01:42:37;7.82;;;4.80;;
18196;SDS011;9224;52.422;13.024;2022-08-21T01:45:04;5.68;;;4.53;;
18196;SDS011;9224;52.422;13.024;2022-08-21T01:47:32;7.00;;;4.32;;
18196;SDS011;9224;52.422;13.024;2022-08-21T01:49:59;5.03;;;4.45;;
18196;SDS011;9224;52.422;13.024;2022-08-21T01:52:25;5.47;;;4.25;;
18196;SDS011;9224;52.422;13.024;2022-08-21T01:54:52;5.95;;;4.25;;
18196;SDS011;9224;52.422;13.024;2022-08-21T01:57:20;7.72;;;4.75;;
18196;SDS011;9224;52.422;13.024;2022-08-21T01:59:46;5.40;;;4.22;;
18196;SDS011;9224;52.422;13.024;2022-08-21T02:02:13;5.93;;;4.40;;
18196;SDS011;9224;52.422;13.024;2022-08-21T02:04:39;7.32;;;4.70;;
18196;SDS011;9224;52.422;13.024;2022-08-21T02:07:06;5.60;;;4.55;;
18196;SDS011;9224;52.422;13.024;2022-08-21T02:09:32;6.38;;;4.55;;
18196;SDS011;9224;52.422;13.024;2022-08-21T02:11:59;6.22;;;4.30;;
18196;SDS011;9224;52.422;13.024;2022-08-21T02:14:27;5.70;;;4.30;;
18196;SDS011;9224;52.422;13.024;2022-08-21T02:16:53;6.57;;;4.20;;
18196;SDS011;9224;52.422;13.024;2022-08-21T02:19:20;6.10;;;4.43;;
18196;SDS011;9224;52.422;13.024;2022-08-21T02:21:46;5.80;;;3.80;;
18196;SDS011;9224;52.422;13.024;2022-08-21T02:24:13;4.88;;;3.70;;
18196;SDS011;9224;52.422;13.024;2022-08-21T02:26:39;5.90;;;4.00;;
18196;SDS011;9224;52.422;13.024;2022-08-21T02:29:06;6.00;;;3.87;;
18196;SDS011;9224;52.422;13.024;2022-08-21T02:31:34;6.00;;;3.75;;
18196;SDS011;9224;52.422;13.024;2022-08-21T02:34:19;5.53;;;3.85;;
18196;SDS011;9224;52.422;13.024;2022-08-21T02:37:05;6.35;;;3.85;;
18196;SDS011;9224;52.422;13.024;2022-08-21T02:39:50;6.57;;;3.97;;
18196;SDS011;9224;52.422;13.024;2022-08-21T02:42:35;4.75;;;3.67;;
18196;SDS011;9224;52.422;13.024;2022-08-21T02:45:20;7.88;;;3.95;;
18196;SDS011;9224;52.422;13.024;2022-08-21T02:48:08;5.70;;;4.03;;
18196;SDS011;9224;52.422;13.024;2022-08-21T02:50:55;6.40;;;3.60;;
18196;SDS011;9224;52.422;13.024;2022-08-21T02:53:42;4.20;;;3.80;;
18196;SDS011;9224;52.422;13.024;2022-08-21T02:56:27;6.18;;;3.72;;
18196;SDS011;9224;52.422;13.024;2022-08-21T02:58:54;7.10;;;3.53;;
18196;SDS011;9224;52.422;13.024;2022-08-21T03:01:20;6.93;;;3.80;;
18196;SDS011;9224;52.422;13.024;2022-08-21T03:03:48;6.07;;;3.80;;
18196;SDS011;9224;52.422;13.024;2022-08-21T03:06:17;5.05;;;3.60;;
18196;SDS011;9224;52.422;13.024;2022-08-21T03:08:45;6.10;;;3.83;;
18196;SDS011;9224;52.422;13.024;2022-08-21T03:11:12;6.20;;;3.70;;
18196;SDS011;9224;52.422;13.024;2022-08-21T03:13:38;4.57;;;3.80;;
18196;SDS011;9224;52.422;13.024;2022-08-21T03:16:05;4.53;;;3.78;;
18196;SDS011;9224;52.422;13.024;2022-08-21T03:18:32;5.57;;;3.92;;
18196;SDS011;9224;52.422;13.024;2022-08-21T03:21:00;4.05;;;3.70;;
18196;SDS011;9224;52.422;13.024;2022-08-21T03:23:27;4.53;;;3.70;;
18196;SDS011;9224;52.422;13.024;2022-08-21T03:25:55;5.10;;;3.95;;
18196;SDS011;9224;52.422;13.024;2022-08-21T03:28:22;5.53;;;3.70;;
18196;SDS011;9224;52.422;13.024;2022-08-21T03:30:49;6.90;;;3.90;;
18196;SDS011;9224;52.422;13.024;2022-08-21T03:33:17;6.32;;;3.95;;
18196;SDS011;9224;52.422;13.024;2022-08-21T03:35:45;5.43;;;3.90;;
18196;SDS011;9224;52.422;13.024;2022-08-21T03:38:15;6.22;;;3.97;;
18196;SDS011;9224;52.422;13.024;2022-08-21T03:40:41;6.43;;;3.97;;
18196;SDS011;9224;52.422;13.024;2022-08-21T03:43:09;5.97;;;4.10;;
18196;SDS011;9224;52.422;13.024;2022-08-21T03:45:36;5.22;;;3.78;;
18196;SDS011;9224;52.422;13.024;2022-08-21T03:48:03;7.40;;;4.05;;
18196;SDS011;9224;52.422;13.024;2022-08-21T03:50:32;4.53;;;3.67;;
18196;SDS011;9224;52.422;13.024;2022-08-21T03:53:02;4.20;;;3.80;;
18196;SDS011;9224;52.422;13.024;2022-08-21T03:55:30;5.95;;;3.90;;
18196;SDS011;9224;52.422;13.024;2022-08-21T03:57:57;6.72;;;3.95;;
18196;SDS011;9224;52.422;13.024;2022-08-21T04:00:23;4.67;;;3.90;;
18196;SDS011;9224;52.422;13.024;2022-08-21T04:02:50;8.55;;;4.00;;
18196;SDS011;9224;52.422;13.024;2022-08-21T04:05:17;5.93;;;3.70;;
18196;SDS011;9224;52.422;13.024;2022-08-21T04:07:52;5.57;;;3.88;;
18196;SDS011;9224;52.422;13.024;2022-08-21T04:10:19;4.82;;;3.70;;
18196;SDS011;9224;52.422;13.024;2022-08-21T04:12:47;5.50;;;3.92;;
18196;SDS011;9224;52.422;13.024;2022-08-21T04:15:14;4.82;;;3.70;;
18196;SDS011;9224;52.422;13.024;2022-08-21T04:17:40;4.53;;;3.70;;
18196;SDS011;9224;52.422;13.024;2022-08-21T04:20:07;6.15;;;3.80;;
18196;SDS011;9224;52.422;13.024;2022-08-21T04:22:34;4.50;;;3.47;;
18196;SDS011;9224;52.422;13.024;2022-08-21T04:25:01;5.22;;;3.90;;
18196;SDS011;9224;52.422;13.024;2022-08-21T04:27:27;5.13;;;3.72;;
18196;SDS011;9224;52.422;13.024;2022-08-21T04:29:55;6.60;;;3.90;;
18196;SDS011;9224;52.422;13.024;2022-08-21T04:32:22;7.70;;;4.10;;
18196;SDS011;9224;52.422;13.024;2022-08-21T04:34:48;5.57;;;3.80;;
18196;SDS011;9224;52.422;13.024;2022-08-21T04:37:15;4.38;;;3.63;;
18196;SDS011;9224;52.422;13.024;2022-08-21T04:39:41;6.00;;;3.83;;
18196;SDS011;9224;52.422;13.024;2022-08-21T04:42:08;5.60;;;4.18;;
18196;SDS011;9224;52.422;13.024;2022-08-21T04:44:35;8.73;;;4.32;;
18196;SDS011;9224;52.422;13.024;2022-08-21T04:47:02;5.70;;;3.70;;
18196;SDS011;9224;52.422;13.024;2022-08-21T04:49:30;5.68;;;3.67;;
18196;SDS011;9224;52.422;13.024;2022-08-21T04:51:57;5.53;;;4.00;;
18196;SDS011;9224;52.422;13.024;2022-08-21T04:54:23;6.43;;;3.80;;
18196;SDS011;9224;52.422;13.024;2022-08-21T04:56:51;4.50;;;3.58;;
18196;SDS011;9224;52.422;13.024;2022-08-21T04:59:20;6.03;;;3.90;;
18196;SDS011;9224;52.422;13.024;2022-08-21T05:01:48;7.07;;;3.88;;
18196;SDS011;9224;52.422;13.024;2022-08-21T05:04:17;5.90;;;3.60;;
18196;SDS011;9224;52.422;13.024;2022-08-21T05:06:45;5.47;;;3.67;;
18196;SDS011;9224;52.422;13.024;2022-08-21T05:09:13;5.10;;;3.80;;
18196;SDS011;9224;52.422;13.024;2022-08-21T05:11:41;6.82;;;3.70;;
18196;SDS011;9224;52.422;13.024;2022-08-21T05:14:08;4.95;;;3.80;;
18196;SDS011;9224;52.422;13.024;2022-08-21T05:16:35;5.13;;;3.47;;
18196;SDS011;9224;52.422;13.024;2022-08-21T05:19:01;5.03;;;3.50;;
18196;SDS011;9224;52.422;13.024;2022-08-21T05:21:29;8.57;;;3.95;;
18196;SDS011;9224;52.422;13.024;2022-08-21T05:23:56;5.65;;;3.70;;
18196;SDS011;9224;52.422;13.024;2022-08-21T05:26:22;5.27;;;3.80;;
18196;SDS011;9224;52.422;13.024;2022-08-21T05:28:49;5.20;;;3.55;;
18196;SDS011;9224;52.422;13.024;2022-08-21T05:31:15;5.47;;;3.58;;
18196;SDS011;9224;52.422;13.024;2022-08-21T05:33:42;6.87;;;3.70;;
18196;SDS011;9224;52.422;13.024;2022-08-21T05:36:08;5.85;;;3.25;;
18196;SDS011;9224;52.422;13.024;2022-08-21T05:38:36;7.70;;;3.50;;
18196;SDS011;9224;52.422;13.024;2022-08-21T05:41:03;5.15;;;3.00;;
18196;SDS011;9224;52.422;13.024;2022-08-21T05:43:29;7.68;;;3.00;;
18196;SDS011;9224;52.422;13.024;2022-08-21T05:45:57;6.00;;;3.08;;
18196;SDS011;9224;52.422;13.024;2022-08-21T05:48:24;5.22;;;3.20;;
18196;SDS011;9224;52.422;13.024;2022-08-21T05:50:51;7.03;;;3.25;;
18196;SDS011;9224;52.422;13.024;2022-08-21T05:53:19;5.72;;;3.30;;
18196;SDS011;9224;52.422;13.024;2022-08-21T05:55:48;6.88;;;3.30;;
18196;SDS011;9224;52.422;13.024;2022-08-21T05:58:16;4.30;;;3.10;;
18196;SDS011;9224;52.422;13.024;2022-08-21T06:00:44;7.10;;;3.25;;
18196;SDS011;9224;52.422;13.024;2022-08-21T06:03:12;5.80;;;3.10;;
18196;SDS011;9224;52.422;13.024;2022-08-21T06:05:40;6.53;;;3.38;;
18196;SDS011;9224;52.422;13.024;2022-08-21T06:08:07;6.15;;;3.15;;
18196;SDS011;9224;52.422;13.024;2022-08-21T06:10:33;6.18;;;3.15;;
18196;SDS011;9224;52.422;13.024;2022-08-21T06:13:01;4.35;;;3.00;;
18196;SDS011;9224;52.422;13.024;2022-08-21T06:15:27;6.20;;;3.30;;
18196;SDS011;9224;52.422;13.024;2022-08-21T06:17:54;5.20;;;3.10;;
18196;SDS011;9224;52.422;13.024;2022-08-21T06:20:21;5.18;;;3.30;;
18196;SDS011;9224;52.422;13.024;2022-08-21T06:22:48;5.97;;;3.40;;
18196;SDS011;9224;52.422;13.024;2022-08-21T06:25:15;5.95;;;3.50;;
18196;SDS011;9224;52.422;13.024;2022-08-21T06:27:41;5.85;;;3.28;;
18196;SDS011;9224;52.422;13.024;2022-08-21T06:30:09;6.93;;;3.30;;
18196;SDS011;9224;52.422;13.024;2022-08-21T06:32:37;6.47;;;3.47;;
18196;SDS011;9224;52.422;13.024;2022-08-21T06:35:04;7.65;;;3.50;;
18196;SDS011;9224;52.422;13.024;2022-08-21T06:37:31;5.72;;;3.20;;
18196;SDS011;9224;52.422;13.024;2022-08-21T06:39:58;5.27;;;2.97;;
18196;SDS011;9224;52.422;13.024;2022-08-21T06:42:24;4.70;;;3.25;;
18196;SDS011;9224;52.422;13.024;2022-08-21T06:44:52;5.40;;;3.53;;
18196;SDS011;9224;52.422;13.024;2022-08-21T06:47:20;6.25;;;3.08;;
18196;SDS011;9224;52.422;13.024;2022-08-21T06:49:46;7.53;;;3.47;;
18196;SDS011;9224;52.422;13.024;2022-08-21T06:52:13;7.10;;;3.50;;
18196;SDS011;9224;52.422;13.024;2022-08-21T06:54:39;8.05;;;3.08;;
18196;SDS011;9224;52.422;13.024;2022-08-21T06:57:06;5.88;;;3.10;;
18196;SDS011;9224;52.422;13.024;2022-08-21T06:59:33;8.23;;;3.00;;
18196;SDS011;9224;52.422;13.024;2022-08-21T07:01:59;5.45;;;2.80;;
18196;SDS011;9224;52.422;13.024;2022-08-21T07:04:27;5.43;;;2.90;;
18196;SDS011;9224;52.422;13.024;2022-08-21T07:06:54;5.93;;;3.00;;
18196;SDS011;9224;52.422;13.024;2022-08-21T07:09:20;6.65;;;3.03;;
18196;SDS011;9224;52.422;13.024;2022-08-21T07:11:47;6.57;;;3.00;;
18196;SDS011;9224;52.422;13.024;2022-08-21T07:14:17;7.70;;;2.97;;
18196;SDS011;9224;52.422;13.024;2022-08-21T07:16:43;6.22;;;3.00;;
18196;SDS011;9224;52.422;13.024;2022-08-21T07:19:10;6.03;;;3.00;;
18196;SDS011;9224;52.422;13.024;2022-08-21T07:21:37;5.40;;;2.83;;
18196;SDS011;9224;52.422;13.024;2022-08-21T07:24:04;5.25;;;2.95;;
18196;SDS011;9224;52.422;13.024;2022-08-21T07:26:30;4.87;;;2.73;;
18196;SDS011;9224;52.422;13.024;2022-08-21T07:28:57;6.40;;;2.80;;
18196;SDS011;9224;52.422;13.024;2022-08-21T07:31:24;5.95;;;2.83;;
18196;SDS011;9224;52.422;13.024;2022-08-21T07:33:51;3.78;;;2.40;;
18196;SDS011;9224;52.422;13.024;2022-08-21T07:36:18;5.40;;;2.67;;
18196;SDS011;9224;52.422;13.024;2022-08-21T07:38:46;6.07;;;2.65;;
18196;SDS011;9224;52.422;13.024;2022-08-21T07:41:13;6.32;;;2.72;;
18196;SDS011;9224;52.422;13.024;2022-08-21T07:43:41;5.93;;;2.67;;
18196;SDS011;9224;52.422;13.024;2022-08-21T07:46:08;4.68;;;2.72;;
18196;SDS011;9224;52.422;13.024;2022-08-21T07:48:35;6.18;;;2.65;;
18196;SDS011;9224;52.422;13.024;2022-08-21T07:51:02;5.90;;;2.67;;
18196;SDS011;9224;52.422;13.024;2022-08-21T07:53:32;5.32;;;2.60;;
18196;SDS011;9224;52.422;13.024;2022-08-21T07:56:00;4.60;;;2.35;;
18196;SDS011;9224;52.422;13.024;2022-08-21T07:58:26;6.25;;;2.50;;
18196;SDS011;9224;52.422;13.024;2022-08-21T08:00:53;3.90;;;2.30;;
18196;SDS011;9224;52.422;13.024;2022-08-21T08:03:19;4.63;;;2.38;;
18196;SDS011;9224;52.422;13.024;2022-08-21T08:05:46;4.30;;;2.20;;
18196;SDS011;9224;52.422;13.024;2022-08-21T08:08:13;5.85;;;2.58;;
18196;SDS011;9224;52.422;13.024;2022-08-21T08:10:39;5.22;;;2.33;;
18196;SDS011;9224;52.422;13.024;2022-08-21T08:13:07;5.82;;;2.38;;
18196;SDS011;9224;52.422;13.024;2022-08-21T08:15:34;5.05;;;2.50;;
18196;SDS011;9224;52.422;13.024;2022-08-21T08:18:01;4.68;;;2.10;;
18196;SDS011;9224;52.422;13.024;2022-08-21T08:20:28;3.95;;;2.03;;
18196;SDS011;9224;52.422;13.024;2022-08-21T08:22:55;3.83;;;2.22;;
18196;SDS011;9224;52.422;13.024;2022-08-21T08:25:22;4.25;;;2.50;;
18196;SDS011;9224;52.422;13.024;2022-08-21T08:27:49;4.80;;;2.20;;
18196;SDS011;9224;52.422;13.024;2022-08-21T08:30:17;4.18;;;2.20;;
18196;SDS011;9224;52.422;13.024;2022-08-21T08:32:45;4.60;;;2.38;;
18196;SDS011;9224;52.422;13.024;2022-08-21T08:35:12;4.70;;;2.20;;
18196;SDS011;9224;52.422;13.024;2022-08-21T08:37:39;3.45;;;2.20;;
18196;SDS011;9224;52.422;13.024;2022-08-21T08:40:06;4.38;;;2.30;;
18196;SDS011;9224;52.422;13.024;2022-08-21T08:42:36;4.78;;;2.50;;
18196;SDS011;9224;52.422;13.024;2022-08-21T08:45:04;5.18;;;2.30;;
18196;SDS011;9224;52.422;13.024;2022-08-21T08:47:36;4.22;;;2.10;;
18196;SDS011;9224;52.422;13.024;2022-08-21T08:50:05;7.22;;;2.65;;
18196;SDS011;9224;52.422;13.024;2022-08-21T08:52:34;4.68;;;2.65;;
18196;SDS011;9224;52.422;13.024;2022-08-21T08:55:03;4.97;;;2.63;;
18196;SDS011;9224;52.422;13.024;2022-08-21T08:57:31;5.88;;;2.63;;
18196;SDS011;9224;52.422;13.024;2022-08-21T08:59:59;4.80;;;2.22;;
18196;SDS011;9224;52.422;13.024;2022-08-21T09:02:27;5.15;;;2.63;;
18196;SDS011;9224;52.422;13.024;2022-08-21T09:04:55;5.05;;;2.63;;
18196;SDS011;9224;52.422;13.024;2022-08-21T09:07:25;5.28;;;2.60;;
18196;SDS011;9224;52.422;13.024;2022-08-21T09:10:04;4.70;;;2.78;;
18196;SDS011;9224;52.422;13.024;2022-08-21T09:12:40;7.03;;;2.63;;
18196;SDS011;9224;52.422;13.024;2022-08-21T09:15:15;6.15;;;2.75;;
18196;SDS011;9224;52.422;13.024;2022-08-21T09:17:52;5.22;;;2.35;;
18196;SDS011;9224;52.422;13.024;2022-08-21T09:20:29;4.88;;;2.40;;
18196;SDS011;9224;52.422;13.024;2022-08-21T09:23:03;5.37;;;2.67;;
18196;SDS011;9224;52.422;13.024;2022-08-21T09:25:41;4.82;;;2.72;;
18196;SDS011;9224;52.422;13.024;2022-08-21T09:28:11;5.40;;;2.65;;
18196;SDS011;9224;52.422;13.024;2022-08-21T09:30:40;4.22;;;2.55;;
18196;SDS011;9224;52.422;13.024;2022-08-21T09:33:07;4.20;;;2.50;;
18196;SDS011;9224;52.422;13.024;2022-08-21T09:35:35;4.97;;;2.42;;
18196;SDS011;9224;52.422;13.024;2022-08-21T09:38:03;5.15;;;2.53;;
18196;SDS011;9224;52.422;13.024;2022-08-21T09:40:36;7.33;;;2.70;;
18196;SDS011;9224;52.422;13.024;2022-08-21T09:43:05;6.72;;;2.75;;
18196;SDS011;9224;52.422;13.024;2022-08-21T09:45:37;3.97;;;2.10;;
18196;SDS011;9224;52.422;13.024;2022-08-21T09:48:08;7.63;;;2.85;;
18196;SDS011;9224;52.422;13.024;2022-08-21T09:50:37;6.55;;;2.85;;
18196;SDS011;9224;52.422;13.024;2022-08-21T09:53:04;4.47;;;2.22;;
18196;SDS011;9224;52.422;13.024;2022-08-21T09:55:32;4.78;;;2.38;;
18196;SDS011;9224;52.422;13.024;2022-08-21T09:58:18;3.83;;;2.28;;
18196;SDS011;9224;52.422;13.024;2022-08-21T10:00:45;6.75;;;2.58;;
18196;SDS011;9224;52.422;13.024;2022-08-21T10:03:22;4.35;;;2.50;;
18196;SDS011;9224;52.422;13.024;2022-08-21T10:05:52;4.45;;;2.30;;
18196;SDS011;9224;52.422;13.024;2022-08-21T10:08:21;4.67;;;2.70;;
18196;SDS011;9224;52.422;13.024;2022-08-21T10:10:50;3.88;;;2.40;;
18196;SDS011;9224;52.422;13.024;2022-08-21T10:13:20;3.22;;;2.08;;
18196;SDS011;9224;52.422;13.024;2022-08-21T10:15:50;4.90;;;2.70;;
18196;SDS011;9224;52.422;13.024;2022-08-21T10:18:21;4.35;;;2.42;;
18196;SDS011;9224;52.422;13.024;2022-08-21T10:20:50;7.22;;;2.50;;
18196;SDS011;9224;52.422;13.024;2022-08-21T10:23:27;3.83;;;1.92;;
18196;SDS011;9224;52.422;13.024;2022-08-21T10:26:01;4.22;;;2.13;;
18196;SDS011;9224;52.422;13.024;2022-08-21T10:28:32;2.92;;;2.10;;
18196;SDS011;9224;52.422;13.024;2022-08-21T10:31:06;5.05;;;2.35;;
18196;SDS011;9224;52.422;13.024;2022-08-21T10:33:39;4.15;;;2.42;;
18196;SDS011;9224;52.422;13.024;2022-08-21T10:36:11;4.22;;;2.20;;
18196;SDS011;9224;52.422;13.024;2022-08-21T10:38:44;5.32;;;2.50;;
18196;SDS011;9224;52.422;13.024;2022-08-21T10:41:18;4.80;;;2.65;;
18196;SDS011;9224;52.422;13.024;2022-08-21T10:43:52;4.07;;;2.30;;
18196;SDS011;9224;52.422;13.024;2022-08-21T10:46:38;5.00;;;2.40;;
18196;SDS011;9224;52.422;13.024;2022-08-21T10:49:35;4.35;;;2.28;;
18196;SDS011;9224;52.422;13.024;2022-08-21T10:52:13;5.22;;;2.58;;
18196;SDS011;9224;52.422;13.024;2022-08-21T10:54:49;4.22;;;2.38;;
18196;SDS011;9224;52.422;13.024;2022-08-21T10:57:19;4.13;;;2.45;;
18196;SDS011;9224;52.422;13.024;2022-08-21T10:59:49;5.18;;;2.28;;
18196;SDS011;9224;52.422;13.024;2022-08-21T11:02:20;3.90;;;2.60;;
18196;SDS011;9224;52.422;13.024;2022-08-21T11:04:51;4.10;;;2.50;;
18196;SDS011;9224;52.422;13.024;2022-08-21T11:07:22;3.90;;;2.28;;
18196;SDS011;9224;52.422;13.024;2022-08-21T11:09:54;4.93;;;2.40;;
18196;SDS011;9224;52.422;13.024;2022-08-21T11:12:23;4.82;;;2.40;;
18196;SDS011;9224;52.422;13.024;2022-08-21T11:14:54;5.15;;;2.55;;
18196;SDS011;9224;52.422;13.024;2022-08-21T11:17:24;3.65;;;2.50;;
18196;SDS011;9224;52.422;13.024;2022-08-21T11:19:58;5.47;;;2.47;;
18196;SDS011;9224;52.422;13.024;2022-08-21T11:22:33;5.40;;;2.60;;
18196;SDS011;9224;52.422;13.024;2022-08-21T11:25:03;4.05;;;2.50;;
18196;SDS011;9224;52.422;13.024;2022-08-21T11:27:36;5.97;;;2.67;;
18196;SDS011;9224;52.422;13.024;2022-08-21T11:30:06;4.05;;;2.42;;
18196;SDS011;9224;52.422;13.024;2022-08-21T11:32:50;4.60;;;2.38;;
18196;SDS011;9224;52.422;13.024;2022-08-21T11:35:26;4.88;;;2.50;;
18196;SDS011;9224;52.422;13.024;2022-08-21T11:38:04;4.80;;;2.40;;
18196;SDS011;9224;52.422;13.024;2022-08-21T11:40:50;5.37;;;2.47;;
18196;SDS011;9224;52.422;13.024;2022-08-21T11:43:31;5.25;;;2.90;;
18196;SDS011;9224;52.422;13.024;2022-08-21T11:46:03;4.00;;;2.38;;
18196;SDS011;9224;52.422;13.024;2022-08-21T11:48:40;5.80;;;2.95;;
18196;SDS011;9224;52.422;13.024;2022-08-21T11:51:11;5.32;;;2.85;;
18196;SDS011;9224;52.422;13.024;2022-08-21T11:53:42;5.18;;;2.75;;
18196;SDS011;9224;52.422;13.024;2022-08-21T11:56:17;6.45;;;2.78;;
18196;SDS011;9224;52.422;13.024;2022-08-21T11:58:47;6.80;;;2.83;;
18196;SDS011;9224;52.422;13.024;2022-08-21T12:01:17;4.65;;;2.78;;
18196;SDS011;9224;52.422;13.024;2022-08-21T12:03:51;5.03;;;2.80;;
18196;SDS011;9224;52.422;13.024;2022-08-21T12:06:28;4.53;;;2.45;;
18196;SDS011;9224;52.422;13.024;2022-08-21T12:08:59;4.50;;;2.50;;
18196;SDS011;9224;52.422;13.024;2022-08-21T12:11:27;5.85;;;2.80;;
18196;SDS011;9224;52.422;13.024;2022-08-21T12:13:54;5.43;;;2.83;;
18196;SDS011;9224;52.422;13.024;2022-08-21T12:16:28;6.45;;;2.92;;
18196;SDS011;9224;52.422;13.024;2022-08-21T12:19:02;4.38;;;2.83;;
18196;SDS011;9224;52.422;13.024;2022-08-21T12:21:29;7.10;;;2.88;;
18196;SDS011;9224;52.422;13.024;2022-08-21T12:24:17;5.90;;;2.70;;
18196;SDS011;9224;52.422;13.024;2022-08-21T12:26:50;6.88;;;2.80;;
18196;SDS011;9224;52.422;13.024;2022-08-21T12:29:21;5.28;;;2.95;;
18196;SDS011;9224;52.422;13.024;2022-08-21T12:31:53;4.25;;;2.72;;
18196;SDS011;9224;52.422;13.024;2022-08-21T12:34:29;6.47;;;2.55;;
18196;SDS011;9224;52.422;13.024;2022-08-21T12:36:59;7.13;;;3.17;;
18196;SDS011;9224;52.422;13.024;2022-08-21T12:39:29;5.30;;;2.80;;
18196;SDS011;9224;52.422;13.024;2022-08-21T12:41:59;5.97;;;2.90;;
18196;SDS011;9224;52.422;13.024;2022-08-21T12:44:28;4.63;;;2.80;;
18196;SDS011;9224;52.422;13.024;2022-08-21T12:46:59;5.20;;;2.70;;
18196;SDS011;9224;52.422;13.024;2022-08-21T12:49:30;3.92;;;2.70;;
18196;SDS011;9224;52.422;13.024;2022-08-21T12:52:01;6.20;;;2.72;;
18196;SDS011;9224;52.422;13.024;2022-08-21T12:54:31;4.93;;;2.90;;
18196;SDS011;9224;52.422;13.024;2022-08-21T12:56:59;5.03;;;2.80;;
18196;SDS011;9224;52.422;13.024;2022-08-21T12:59:26;6.65;;;2.95;;
18196;SDS011;9224;52.422;13.024;2022-08-21T13:01:54;6.00;;;2.90;;
18196;SDS011;9224;52.422;13.024;2022-08-21T13:04:22;5.73;;;2.90;;
18196;SDS011;9224;52.422;13.024;2022-08-21T13:06:53;4.95;;;2.80;;
18196;SDS011;9224;52.422;13.024;2022-08-21T13:09:23;5.70;;;2.70;;
18196;SDS011;9224;52.422;13.024;2022-08-21T13:11:53;7.83;;;3.30;;
18196;SDS011;9224;52.422;13.024;2022-08-21T13:14:21;6.03;;;2.53;;
18196;SDS011;9224;52.422;13.024;2022-08-21T13:16:52;5.20;;;2.80;;
18196;SDS011;9224;52.422;13.024;2022-08-21T13:19:19;5.88;;;2.67;;
18196;SDS011;9224;52.422;13.024;2022-08-21T13:21:46;7.57;;;3.08;;
18196;SDS011;9224;52.422;13.024;2022-08-21T13:24:15;6.60;;;2.88;;
18196;SDS011;9224;52.422;13.024;2022-08-21T13:26:42;6.20;;;2.47;;
18196;SDS011;9224;52.422;13.024;2022-08-21T13:29:11;6.45;;;2.72;;
18196;SDS011;9224;52.422;13.024;2022-08-21T13:31:40;4.47;;;2.60;;
18196;SDS011;9224;52.422;13.024;2022-08-21T13:34:12;4.83;;;2.80;;
18196;SDS011;9224;52.422;13.024;2022-08-21T13:36:41;4.97;;;2.85;;
18196;SDS011;9224;52.422;13.024;2022-08-21T13:39:08;4.45;;;2.65;;
18196;SDS011;9224;52.422;13.024;2022-08-21T13:41:38;4.43;;;2.63;;
18196;SDS011;9224;52.422;13.024;2022-08-21T13:44:05;6.10;;;2.83;;
18196;SDS011;9224;52.422;13.024;2022-08-21T13:46:41;4.22;;;2.90;;
18196;SDS011;9224;52.422;13.024;2022-08-21T13:49:08;5.47;;;2.85;;
18196;SDS011;9224;52.422;13.024;2022-08-21T13:51:35;5.10;;;2.80;;
18196;SDS011;9224;52.422;13.024;2022-08-21T13:54:12;5.97;;;2.97;;
18196;SDS011;9224;52.422;13.024;2022-08-21T13:56:41;6.60;;;2.67;;
18196;SDS011;9224;52.422;13.024;2022-08-21T13:59:09;4.60;;;2.72;;
18196;SDS011;9224;52.422;13.024;2022-08-21T14:01:36;7.30;;;3.00;;
18196;SDS011;9224;52.422;13.024;2022-08-21T14:04:06;4.38;;;2.60;;
18196;SDS011;9224;52.422;13.024;2022-08-21T14:06:40;3.95;;;2.90;;
18196;SDS011;9224;52.422;13.024;2022-08-21T14:09:09;4.90;;;3.10;;
18196;SDS011;9224;52.422;13.024;2022-08-21T14:11:36;5.85;;;2.88;;
18196;SDS011;9224;52.422;13.024;2022-08-21T14:14:05;5.43;;;2.70;;
18196;SDS011;9224;52.422;13.024;2022-08-21T14:16:43;6.93;;;2.90;;
18196;SDS011;9224;52.422;13.024;2022-08-21T14:19:17;7.95;;;3.17;;
18196;SDS011;9224;52.422;13.024;2022-08-21T14:21:45;5.97;;;2.83;;
18196;SDS011;9224;52.422;13.024;2022-08-21T14:24:13;5.63;;;2.72;;
18196;SDS011;9224;52.422;13.024;2022-08-21T14:26:45;6.00;;;2.97;;
18196;SDS011;9224;52.422;13.024;2022-08-21T14:29:14;6.40;;;2.87;;
18196;SDS011;9224;52.422;13.024;2022-08-21T14:31:42;5.38;;;3.10;;
18196;SDS011;9224;52.422;13.024;2022-08-21T14:34:10;5.03;;;3.00;;
18196;SDS011;9224;52.422;13.024;2022-08-21T14:36:41;5.53;;;2.85;;
18196;SDS011;9224;52.422;13.024;2022-08-21T14:39:08;5.97;;;3.15;;
18196;SDS011;9224;52.422;13.024;2022-08-21T14:41:35;5.72;;;2.97;;
18196;SDS011;9224;52.422;13.024;2022-08-21T14:44:02;6.22;;;3.05;;
18196;SDS011;9224;52.422;13.024;2022-08-21T14:46:30;5.97;;;2.92;;
18196;SDS011;9224;52.422;13.024;2022-08-21T14:48:57;5.68;;;3.10;;
18196;SDS011;9224;52.422;13.024;2022-08-21T14:51:25;5.28;;;2.85;;
18196;SDS011;9224;52.422;13.024;2022-08-21T14:53:51;5.10;;;2.95;;
18196;SDS011;9224;52.422;13.024;2022-08-21T14:56:18;5.53;;;3.08;;
18196;SDS011;9224;52.422;13.024;2022-08-21T14:58:45;4.18;;;2.95;;
18196;SDS011;9224;52.422;13.024;2022-08-21T15:01:15;5.05;;;2.97;;